Time;durP1;ratioP1;P1;durP2;ratioP2;P2;SDS_P1;SDS_P2;PMS_P1;PMS_P2;Temp;Humidity;BMP_temperature;BMP_pressure;BME280_temperature;BME280_humidity;BME280_pressure;Samples;Min_cycle;Max_cycle;Signal;HPM_P1;HPM_P2
2021/03/23 00:00:44;;;;;;;15.87;5.67;;;;;;;8.31;98.06;98881.31;4993097;28;20690;-71
2021/03/23 00:03:14;;;;;;;12.33;5.57;;;;;;;8.20;98.01;98887.81;4990419;28;20304;-72
2021/03/23 00:05:41;;;;;;;10.13;5.53;;;;;;;8.12;99.06;98894.91;4990558;28;20214;-72
2021/03/23 00:08:20;;;;;;;13.23;5.57;;;;;;;8.39;97.08;98892.81;4993846;28;20636;-72
2021/03/23 00:10:47;;;;;;;13.30;5.40;;;;;;;8.46;96.67;98887.63;4990945;28;20233;-72
2021/03/23 00:13:13;;;;;;;11.73;5.43;;;;;;;8.40;97.88;98885.63;4987474;28;20257;-71
2021/03/23 00:15:42;;;;;;;13.43;5.40;;;;;;;8.24;97.83;98889.13;4992578;28;20290;-71
2021/03/23 00:18:10;;;;;;;12.63;5.00;;;;;;;8.16;99.27;98885.59;4988971;28;20690;-72
2021/03/23 00:20:37;;;;;;;9.23;5.33;;;;;;;8.31;98.03;98889.28;4986056;28;20720;-71
2021/03/23 00:23:04;;;;;;;11.10;5.63;;;;;;;8.15;99.38;98884.75;4984533;28;20235;-72
2021/03/23 00:25:31;;;;;;;9.57;4.73;;;;;;;8.13;99.63;98885.94;4989753;28;20379;-70
2021/03/23 00:27:58;;;;;;;13.17;5.57;;;;;;;8.11;99.87;98886.09;4988383;28;20225;-71
2021/03/23 00:30:25;;;;;;;12.40;6.07;;;;;;;8.26;98.27;98888.94;4992420;28;20889;-72
2021/03/23 00:32:52;;;;;;;10.13;5.57;;;;;;;8.19;99.39;98886.09;4982976;28;20201;-70
2021/03/23 00:35:20;;;;;;;11.63;5.03;;;;;;;8.17;99.29;98892.59;4988713;28;20626;-69
2021/03/23 00:37:50;;;;;;;13.67;5.90;;;;;;;8.34;98.76;98889.81;4992797;28;20207;-69
2021/03/23 00:40:19;;;;;;;13.60;6.10;;;;;;;8.15;99.91;98889.25;4987491;28;20227;-69
2021/03/23 00:42:46;;;;;;;11.33;5.77;;;;;;;7.89;100.00;98881.41;4991627;28;20206;-69
2021/03/23 00:45:13;;;;;;;10.23;5.47;;;;;;;8.22;100.00;98891.13;4990632;28;20207;-70
2021/03/23 00:47:40;;;;;;;14.73;6.70;;;;;;;8.00;100.00;98889.06;4991040;28;20229;-71
2021/03/23 00:50:09;;;;;;;12.53;5.77;;;;;;;8.11;100.00;98888.75;4991447;28;20223;-69
2021/03/23 00:52:36;;;;;;;13.57;6.33;;;;;;;8.08;100.00;98889.06;4990692;28;20208;-70
2021/03/23 00:55:03;;;;;;;14.77;5.70;;;;;;;8.23;100.00;98889.28;4983558;28;20204;-70
2021/03/23 00:57:30;;;;;;;15.07;6.50;;;;;;;7.90;100.00;98887.53;4991011;28;20206;-69
2021/03/23 00:59:57;;;;;;;15.20;5.77;;;;;;;8.18;100.00;98886.25;4977498;28;20237;-69
2021/03/23 01:02:24;;;;;;;13.00;6.57;;;;;;;8.19;100.00;98880.78;4983646;28;20213;-69
2021/03/23 01:04:51;;;;;;;13.10;5.90;;;;;;;8.05;100.00;98876.13;4989288;28;20266;-69
2021/03/23 01:07:19;;;;;;;15.23;6.90;;;;;;;8.16;100.00;98888.25;4992381;28;20256;-69
2021/03/23 01:09:45;;;;;;;15.47;6.93;;;;;;;8.02;100.00;98873.78;4993645;28;20745;-70
2021/03/23 01:12:13;;;;;;;12.93;6.23;;;;;;;7.90;100.00;98877.75;4990273;28;20216;-70
2021/03/23 01:14:41;;;;;;;16.57;6.57;;;;;;;8.21;100.00;98884.13;4988201;28;20209;-69
2021/03/23 01:17:08;;;;;;;16.73;6.83;;;;;;;7.95;100.00;98880.75;4992746;28;20219;-69
2021/03/23 01:19:35;;;;;;;16.50;6.60;;;;;;;7.88;100.00;98885.06;4987261;28;20232;-69
2021/03/23 01:22:02;;;;;;;13.20;6.43;;;;;;;7.89;100.00;98881.41;4987399;28;20207;-70
2021/03/23 01:24:30;;;;;;;13.37;6.77;;;;;;;8.23;100.00;98876.81;4988110;28;20217;-69
2021/03/23 01:26:57;;;;;;;17.43;6.57;;;;;;;7.99;100.00;98883.91;4993566;28;20205;-69
2021/03/23 01:29:24;;;;;;;13.50;6.40;;;;;;;7.86;100.00;98879.06;4988599;28;20573;-70
2021/03/23 01:31:51;;;;;;;14.73;6.63;;;;;;;7.99;100.00;98881.25;4986248;28;20229;-70
2021/03/23 01:34:18;;;;;;;13.83;7.10;;;;;;;7.76;100.00;98881.03;4985850;28;20216;-69
2021/03/23 01:36:44;;;;;;;14.87;6.33;;;;;;;7.72;100.00;98882.34;4986417;28;20240;-70
2021/03/23 01:39:11;;;;;;;14.73;6.47;;;;;;;7.98;100.00;98885.75;4980396;28;20206;-69
2021/03/23 01:41:39;;;;;;;14.77;7.20;;;;;;;7.53;100.00;98889.75;4990129;28;20233;-69
2021/03/23 01:44:06;;;;;;;15.33;6.83;;;;;;;8.00;100.00;98890.88;4986913;28;20603;-69
2021/03/23 01:46:40;;;;;;;12.70;6.73;;;;;;;7.95;100.00;98886.06;4986537;28;20216;-69
2021/03/23 01:49:13;;;;;;;16.27;7.80;;;;;;;8.03;100.00;98886.09;4985117;28;20302;-70
2021/03/23 01:51:42;;;;;;;14.97;6.80;;;;;;;7.94;100.00;98886.22;4985310;28;20224;-69
2021/03/23 01:54:12;;;;;;;14.23;6.87;;;;;;;8.05;100.00;98878.78;4980285;28;20673;-70
2021/03/23 01:56:40;;;;;;;14.93;7.57;;;;;;;7.99;100.00;98878.59;4988531;28;20226;-70
2021/03/23 01:59:08;;;;;;;15.33;7.87;;;;;;;7.84;100.00;98870.44;4993178;28;20207;-70
2021/03/23 02:01:35;;;;;;;14.50;7.27;;;;;;;8.05;100.00;98877.94;4985783;28;20241;-70
2021/03/23 02:04:03;;;;;;;19.33;8.77;;;;;;;7.96;100.00;98870.97;4993503;28;20216;-70
2021/03/23 02:06:40;;;;;;;18.83;8.80;;;;;;;7.99;100.00;98875.94;4997641;28;20682;-70
2021/03/23 02:09:10;;;;;;;17.53;8.40;;;;;;;8.12;100.00;98870.97;4988080;28;20229;-70
2021/03/23 02:11:42;;;;;;;22.77;9.60;;;;;;;8.09;100.00;98874.78;4990930;28;20229;-70
2021/03/23 02:14:10;;;;;;;18.97;9.80;;;;;;;8.13;100.00;98873.44;4982859;28;20559;-69
2021/03/23 02:16:36;;;;;;;21.77;9.73;;;;;;;7.95;100.00;98875.44;4990709;28;20205;-69
2021/03/23 02:19:04;;;;;;;18.80;10.30;;;;;;;7.90;100.00;98877.75;4983715;28;20261;-70
2021/03/23 02:21:32;;;;;;;19.20;9.80;;;;;;;7.92;100.00;98866.97;4982967;28;20238;-69
2021/03/23 02:23:59;;;;;;;22.87;9.90;;;;;;;8.11;100.00;98870.13;4990326;28;20273;-69
2021/03/23 02:26:29;;;;;;;23.97;10.77;;;;;;;8.02;100.00;98876.44;4986381;28;20758;-70
2021/03/23 02:28:58;;;;;;;22.10;10.83;;;;;;;8.00;100.00;98869.63;4987891;28;20234;-70
2021/03/23 02:31:29;;;;;;;23.57;11.37;;;;;;;7.84;100.00;98865.13;4991338;28;20237;-69
2021/03/23 02:33:57;;;;;;;25.73;11.30;;;;;;;7.92;100.00;98869.63;4988071;28;20212;-69
2021/03/23 02:36:24;;;;;;;27.10;11.20;;;;;;;8.19;100.00;98864.00;4988880;28;20211;-70
2021/03/23 02:38:52;;;;;;;23.27;11.33;;;;;;;8.05;100.00;98867.28;4986246;28;20215;-69
2021/03/23 02:41:19;;;;;;;22.73;11.17;;;;;;;8.18;100.00;98871.13;4988594;28;20694;-70
2021/03/23 02:43:46;;;;;;;24.03;11.63;;;;;;;8.06;100.00;98869.78;4981733;28;20204;-70
2021/03/23 02:46:13;;;;;;;25.50;10.90;;;;;;;7.93;100.00;98868.63;4990280;28;20209;-69
2021/03/23 02:48:40;;;;;;;29.03;12.17;;;;;;;8.29;100.00;98873.53;4990077;28;20224;-70
2021/03/23 02:51:08;;;;;;;25.43;12.23;;;;;;;8.21;100.00;98868.19;4991415;28;20324;-69
2021/03/23 02:53:34;;;;;;;23.90;11.23;;;;;;;8.34;100.00;98865.88;4988746;28;20210;-69
2021/03/23 02:56:02;;;;;;;26.47;12.00;;;;;;;8.10;100.00;98864.97;4988643;28;20205;-70
2021/03/23 02:58:29;;;;;;;27.03;12.33;;;;;;;8.19;100.00;98861.34;4989403;28;20671;-70
2021/03/23 03:00:56;;;;;;;23.47;11.97;;;;;;;8.14;100.00;98864.50;4990775;28;20230;-69
2021/03/23 03:03:23;;;;;;;22.77;11.43;;;;;;;8.11;100.00;98854.19;4992615;28;20212;-69
2021/03/23 03:05:49;;;;;;;27.80;11.90;;;;;;;8.07;100.00;98860.81;4987579;28;20585;-69
2021/03/23 03:08:16;;;;;;;25.23;10.20;;;;;;;8.07;100.00;98866.13;4989548;28;20323;-70
2021/03/23 03:10:43;;;;;;;24.77;12.83;;;;;;;7.94;100.00;98855.16;4986267;28;20602;-70
2021/03/23 03:13:10;;;;;;;26.00;11.73;;;;;;;7.96;100.00;98855.81;4989488;28;20214;-70
2021/03/23 03:15:37;;;;;;;29.37;12.30;;;;;;;7.96;100.00;98852.34;4988567;28;20206;-69
2021/03/23 03:18:04;;;;;;;25.03;12.23;;;;;;;7.83;100.00;98849.31;4990849;28;20612;-69
2021/03/23 03:20:31;;;;;;;27.10;12.07;;;;;;;8.17;100.00;98855.38;4986074;28;20230;-70
2021/03/23 03:22:58;;;;;;;26.47;12.00;;;;;;;8.19;100.00;98854.19;4989935;28;20207;-69
2021/03/23 03:25:25;;;;;;;26.27;10.83;;;;;;;8.08;100.00;98857.16;4991214;28;20213;-69
2021/03/23 03:27:52;;;;;;;28.07;11.27;;;;;;;7.98;100.00;98856.50;4988663;28;20224;-70
2021/03/23 03:30:23;;;;;;;24.40;11.83;;;;;;;8.00;100.00;98857.16;4987040;28;20232;-70
2021/03/23 03:32:51;;;;;;;23.00;11.77;;;;;;;8.08;100.00;98856.34;4996102;28;20264;-70
2021/03/23 03:35:18;;;;;;;27.17;12.17;;;;;;;8.10;100.00;98857.00;4994582;28;20206;-70
2021/03/23 03:37:45;;;;;;;26.13;10.80;;;;;;;7.77;100.00;98853.44;4987601;28;20224;-70
2021/03/23 03:40:14;;;;;;;25.77;11.67;;;;;;;7.99;100.00;98857.31;4991561;28;20573;-69
2021/03/23 03:42:41;;;;;;;23.47;10.83;;;;;;;8.00;100.00;98853.66;4990222;28;20600;-69
2021/03/23 03:45:10;;;;;;;25.57;11.10;;;;;;;8.18;100.00;98857.03;4987888;28;20222;-69
2021/03/23 03:47:37;;;;;;;26.30;11.93;;;;;;;8.04;100.00;98858.50;4993326;28;20243;-70
2021/03/23 03:50:06;;;;;;;24.10;12.07;;;;;;;8.06;100.00;98851.19;4993536;28;20231;-70
2021/03/23 03:52:33;;;;;;;22.27;11.37;;;;;;;8.16;100.00;98856.34;4992444;28;20213;-69
2021/03/23 03:55:00;;;;;;;24.33;11.90;;;;;;;8.07;100.00;98846.72;4994586;28;20583;-69
2021/03/23 03:57:27;;;;;;;23.83;10.63;;;;;;;7.95;100.00;98861.28;4993660;28;20223;-69
2021/03/23 03:59:54;;;;;;;25.77;12.17;;;;;;;7.95;100.00;98859.47;4992445;28;20706;-69
2021/03/23 04:02:20;;;;;;;24.97;12.23;;;;;;;7.96;100.00;98860.31;4992765;28;20213;-70
2021/03/23 04:04:48;;;;;;;34.00;12.57;;;;;;;8.09;100.00;98858.00;4990147;28;20206;-69
2021/03/23 04:07:15;;;;;;;23.53;10.27;;;;;;;7.92;100.00;98856.31;4991930;28;20213;-69
2021/03/23 04:09:42;;;;;;;34.83;14.30;;;;;;;7.86;100.00;98865.78;4995022;28;20258;-70
2021/03/23 04:12:10;;;;;;;28.53;12.00;;;;;;;7.89;100.00;98857.47;4995521;28;20241;-69
2021/03/23 04:14:37;;;;;;;23.80;11.63;;;;;;;7.89;100.00;98870.78;4993771;28;20202;-69
2021/03/23 04:17:04;;;;;;;26.60;11.80;;;;;;;8.07;100.00;98865.31;4986404;28;20207;-69
2021/03/23 04:19:31;;;;;;;27.87;11.97;;;;;;;7.92;100.00;98864.31;4992764;28;20213;-69
2021/03/23 04:21:58;;;;;;;24.57;11.83;;;;;;;8.01;100.00;98866.78;4991013;28;20212;-69
2021/03/23 04:24:25;;;;;;;25.73;11.47;;;;;;;8.06;100.00;98871.59;4992205;28;20256;-69
2021/03/23 04:26:52;;;;;;;24.53;11.63;;;;;;;7.96;100.00;98878.94;4993023;28;20619;-70
2021/03/23 04:29:19;;;;;;;24.83;10.80;;;;;;;8.05;100.00;98869.94;4991930;28;20769;-70
2021/03/23 04:31:46;;;;;;;22.53;10.70;;;;;;;7.96;100.00;98870.97;4996265;28;20241;-69
2021/03/23 04:34:15;;;;;;;25.27;11.23;;;;;;;8.13;100.00;98878.75;4993663;28;20206;-70
2021/03/23 04:36:43;;;;;;;26.73;11.87;;;;;;;8.21;100.00;98878.81;4992408;28;20205;-69
2021/03/23 04:39:12;;;;;;;26.87;12.07;;;;;;;8.10;100.00;98875.59;4988264;28;20208;-69
2021/03/23 04:41:40;;;;;;;26.80;11.87;;;;;;;8.13;100.00;98884.09;4990541;28;20609;-70
2021/03/23 04:44:08;;;;;;;27.10;12.20;;;;;;;8.05;100.00;98889.41;4990609;28;20236;-70
2021/03/23 04:46:35;;;;;;;24.97;11.73;;;;;;;8.07;100.00;98884.75;4990429;28;20345;-70
2021/03/23 04:49:02;;;;;;;29.20;12.40;;;;;;;8.08;100.00;98889.06;5043862;22;20243;-68
2021/03/23 04:51:31;;;;;;;25.00;12.13;;;;;;;7.89;100.00;98891.19;5033816;28;20303;-68
2021/03/23 04:53:59;;;;;;;25.73;11.63;;;;;;;8.01;100.00;98892.56;5035798;28;20200;-68
2021/03/23 04:56:29;;;;;;;24.07;11.70;;;;;;;7.99;100.00;98894.53;5035950;28;20632;-67
2021/03/23 04:58:56;;;;;;;23.67;11.77;;;;;;;7.84;100.00;98890.84;5017812;28;20719;-67
2021/03/23 05:01:23;;;;;;;33.70;12.57;;;;;;;7.91;100.00;98903.31;5016679;28;20209;-69
2021/03/23 05:03:53;;;;;;;35.63;12.33;;;;;;;7.87;100.00;98901.97;5009589;28;20255;-67
2021/03/23 05:06:20;;;;;;;30.43;11.53;;;;;;;7.92;100.00;98901.50;5015406;28;20259;-67
2021/03/23 05:08:47;;;;;;;25.70;11.40;;;;;;;8.04;100.00;98900.19;5011846;28;20231;-66
2021/03/23 05:11:17;;;;;;;28.83;11.13;;;;;;;7.89;100.00;98900.00;5015461;28;20214;-69
2021/03/23 05:13:44;;;;;;;28.00;11.50;;;;;;;8.09;100.00;98903.19;5007188;28;20205;-69
2021/03/23 05:16:11;;;;;;;25.33;11.87;;;;;;;7.94;100.00;98900.34;5014491;28;20214;-67
2021/03/23 05:18:38;;;;;;;24.23;12.00;;;;;;;8.13;100.00;98909.84;5013314;28;20340;-69
2021/03/23 05:21:05;;;;;;;28.93;12.37;;;;;;;8.04;100.00;98897.53;5013783;28;20410;-69
2021/03/23 05:23:32;;;;;;;24.50;11.60;;;;;;;7.99;100.00;98905.16;5016946;28;20207;-69
2021/03/23 05:25:59;;;;;;;28.63;12.00;;;;;;;7.94;100.00;98902.16;5015391;28;20574;-69
2021/03/23 05:28:26;;;;;;;27.63;12.50;;;;;;;8.06;100.00;98896.38;5013803;28;20286;-69
2021/03/23 05:30:54;;;;;;;27.27;12.30;;;;;;;7.73;100.00;98896.47;5015458;28;20213;-69
2021/03/23 05:33:22;;;;;;;28.80;12.57;;;;;;;7.89;100.00;98909.78;5010405;28;20224;-69
2021/03/23 05:35:50;;;;;;;29.57;12.10;;;;;;;8.10;100.00;98900.38;5019679;28;20209;-68
2021/03/23 05:38:17;;;;;;;33.07;13.57;;;;;;;8.17;100.00;98908.53;5006803;28;20225;-69
2021/03/23 05:40:46;;;;;;;24.93;11.00;;;;;;;7.75;100.00;98908.59;5015693;28;20221;-67
2021/03/23 05:43:44;;;;;;;26.37;11.87;;;;;;;7.88;100.00;98908.97;5011947;28;20209;-69
2021/03/23 05:46:24;;;;;;;27.03;12.67;;;;;;;8.05;100.00;98913.31;5012613;28;20217;-69
2021/03/23 05:49:04;;;;;;;28.07;12.17;;;;;;;8.20;100.00;98918.88;5008724;28;20228;-69
2021/03/23 05:51:36;;;;;;;32.03;13.03;;;;;;;8.27;100.00;98917.22;5008554;28;20692;-69
2021/03/23 05:54:08;;;;;;;31.10;12.03;;;;;;;8.24;100.00;98912.22;5009357;28;20292;-67
2021/03/23 05:56:38;;;;;;;29.03;12.27;;;;;;;8.04;100.00;98924.13;5015722;28;20251;-66
2021/03/23 05:59:10;;;;;;;31.90;12.50;;;;;;;8.08;100.00;98918.31;5012475;28;20225;-69
2021/03/23 06:01:41;;;;;;;35.83;13.43;;;;;;;7.79;100.00;98917.91;5016271;28;20227;-69
2021/03/23 06:04:25;;;;;;;24.30;11.67;;;;;;;8.08;100.00;98926.28;5015822;28;20696;-71
2021/03/23 06:07:00;;;;;;;24.27;11.13;;;;;;;8.38;100.00;98933.66;5016447;28;20196;-71
2021/03/23 06:09:30;;;;;;;26.87;11.93;;;;;;;8.26;100.00;98927.03;5009983;28;20314;-71
2021/03/23 06:12:14;;;;;;;29.43;11.53;;;;;;;8.23;100.00;98924.69;5015395;28;20255;-73
2021/03/23 06:14:46;;;;;;;26.47;12.40;;;;;;;8.14;100.00;98930.13;5010315;28;20205;-74
2021/03/23 06:17:23;;;;;;;26.93;11.83;;;;;;;8.27;100.00;98934.00;5005865;28;20268;-73
2021/03/23 06:19:56;;;;;;;27.80;12.07;;;;;;;8.46;100.00;98939.00;5011857;28;20719;-73
2021/03/23 06:22:36;;;;;;;31.23;12.63;;;;;;;8.38;100.00;98939.00;5014759;28;20210;-75
2021/03/23 06:25:13;;;;;;;31.83;12.77;;;;;;;8.56;100.00;98952.16;5009173;28;20205;-69
2021/03/23 06:27:44;;;;;;;27.50;12.47;;;;;;;8.31;100.00;98950.44;5011991;28;20229;-70
2021/03/23 06:30:40;;;;;;;26.43;10.97;;;;;;;8.44;100.00;98951.66;5008777;28;20575;-70
2021/03/23 06:33:12;;;;;;;28.47;12.10;;;;;;;7.95;100.00;98959.63;5003612;28;20204;-70
2021/03/23 06:35:47;;;;;;;31.37;13.87;;;;;;;8.11;100.00;98957.03;5013480;28;20347;-79
2021/03/23 06:38:22;;;;;;;26.93;12.77;;;;;;;7.88;100.00;98961.28;5011655;28;20249;-72
2021/03/23 06:41:21;;;;;;;29.70;12.17;;;;;;;8.45;100.00;98966.63;5009765;28;20673;-70
2021/03/23 06:43:50;;;;;;;25.33;12.07;;;;;;;8.29;100.00;98966.59;4967402;28;20218;-73
2021/03/23 06:46:40;;;;;;;31.37;12.33;;;;;;;8.19;100.00;98965.88;5003342;28;20209;-71
2021/03/23 06:49:27;;;;;;;32.40;12.43;;;;;;;8.38;100.00;98964.78;5008825;28;20238;-70
2021/03/23 06:52:00;;;;;;;27.63;12.30;;;;;;;8.50;100.00;98971.44;5017707;28;20214;-77
2021/03/23 06:54:29;;;;;;;29.47;12.53;;;;;;;8.36;100.00;98970.25;5006890;28;20888;-73
2021/03/23 06:57:05;;;;;;;28.03;12.30;;;;;;;8.47;100.00;98969.94;5006507;28;20259;-72
2021/03/23 06:59:33;;;;;;;29.23;12.77;;;;;;;8.57;100.00;98967.13;5008429;28;20591;-70
2021/03/23 07:02:01;;;;;;;32.53;13.90;;;;;;;8.30;100.00;98972.72;5009659;28;20695;-70
2021/03/23 07:04:35;;;;;;;31.73;13.33;;;;;;;8.09;100.00;98970.50;5006287;28;20652;-72
2021/03/23 07:07:14;;;;;;;30.87;13.50;;;;;;;8.37;100.00;98971.09;5013366;28;20206;-68
2021/03/23 07:09:50;;;;;;;33.40;12.97;;;;;;;8.37;100.00;98973.75;5008796;28;20216;-71
2021/03/23 07:12:18;;;;;;;29.70;12.57;;;;;;;8.81;100.00;98977.78;5009170;28;20207;-76
2021/03/23 07:14:47;;;;;;;27.10;12.77;;;;;;;8.92;100.00;98980.09;5012318;28;20210;-71
2021/03/23 07:17:40;;;;;;;30.43;13.50;;;;;;;8.70;100.00;98980.75;5013092;28;20292;-71
2021/03/23 07:20:12;;;;;;;29.30;12.87;;;;;;;8.77;100.00;98987.09;5012115;28;20292;-71
2021/03/23 07:22:47;;;;;;;30.53;13.10;;;;;;;8.38;100.00;98983.41;5013936;28;20210;-73
2021/03/23 07:25:32;;;;;;;26.60;12.63;;;;;;;8.77;100.00;98987.94;5014504;28;20221;-72
2021/03/23 07:28:28;;;;;;;34.37;12.57;;;;;;;9.34;100.00;98992.22;5013013;28;20230;-71
2021/03/23 07:31:01;;;;;;;28.93;12.43;;;;;;;8.91;100.00;98992.59;4976284;28;20667;-71
2021/03/23 07:33:39;;;;;;;23.03;11.57;;;;;;;9.49;97.06;98997.69;5010232;28;20211;-71
2021/03/23 07:36:09;;;;;;;30.80;12.93;;;;;;;9.33;98.05;98997.72;5008643;28;20302;-70
2021/03/23 07:38:40;;;;;;;29.60;13.23;;;;;;;9.20;98.75;99000.91;5013026;28;20222;-72
2021/03/23 07:41:10;;;;;;;24.03;12.13;;;;;;;9.93;93.02;98996.19;5013468;28;20206;-71
2021/03/23 07:43:44;;;;;;;29.33;12.50;;;;;;;9.61;95.73;99001.66;5014071;28;20267;-71
2021/03/23 07:46:15;;;;;;;28.07;12.83;;;;;;;9.62;92.83;99003.31;5013278;28;20277;-71
2021/03/23 07:48:47;;;;;;;35.07;13.50;;;;;;;10.12;89.96;99000.34;5013985;28;20233;-71
2021/03/23 07:51:27;;;;;;;29.13;13.30;;;;;;;9.47;94.40;98997.84;5017752;28;20291;-70
2021/03/23 07:53:59;;;;;;;39.33;13.60;;;;;;;9.25;97.09;99003.91;5013723;28;20616;-70
2021/03/23 07:56:40;;;;;;;29.87;13.13;;;;;;;9.86;92.48;99005.91;5016223;28;20213;-69
2021/03/23 07:59:14;;;;;;;31.90;13.30;;;;;;;9.29;95.83;99001.72;5012595;28;20258;-72
2021/03/23 08:01:48;;;;;;;26.10;13.00;;;;;;;8.69;100.00;99005.72;5014353;28;20872;-71
2021/03/23 08:04:16;;;;;;;26.67;12.77;;;;;;;8.51;100.00;99008.53;5013958;28;20203;-69
2021/03/23 08:07:11;;;;;;;27.70;12.33;;;;;;;8.85;100.00;99011.06;5014264;28;20199;-71
2021/03/23 08:09:52;;;;;;;27.93;13.00;;;;;;;9.33;95.21;99011.06;5011547;28;20229;-71
2021/03/23 08:12:45;;;;;;;27.17;12.40;;;;;;;9.35;93.57;99009.03;5015342;28;20297;-71
2021/03/23 08:15:18;;;;;;;35.30;13.40;;;;;;;9.83;92.27;99011.56;5009256;28;20221;-71
2021/03/23 08:18:17;;;;;;;30.03;12.47;;;;;;;9.79;92.42;99005.75;5009978;28;20227;-71
2021/03/23 08:21:07;;;;;;;30.07;13.37;;;;;;;9.56;91.79;99019.97;5008970;28;20196;-71
2021/03/23 08:23:46;;;;;;;30.87;13.87;;;;;;;9.72;91.62;99019.94;5012232;28;20737;-69
2021/03/23 08:26:19;;;;;;;23.13;12.10;;;;;;;10.00;88.86;99018.53;5017858;28;20245;-71
2021/03/23 08:28:49;;;;;;;26.93;11.50;;;;;;;9.90;87.72;99017.91;5019702;28;20223;-69
2021/03/23 08:32:10;;;;;;;29.50;12.67;;;;;;;9.58;93.78;99010.81;5012005;28;20208;-73
2021/03/23 08:35:00;;;;;;;29.07;12.90;;;;;;;8.82;100.00;99008.72;4974027;28;20208;-70
2021/03/23 08:37:43;;;;;;;26.33;12.47;;;;;;;10.43;89.46;99013.50;4971320;28;20209;-71
2021/03/23 08:40:19;;;;;;;21.37;9.40;;;;;;;11.09;79.65;99032.41;5000100;28;20295;-70
2021/03/23 08:42:47;;;;;;;21.53;10.07;;;;;;;10.65;85.72;99018.03;5012234;28;20222;-70
2021/03/23 08:45:19;;;;;;;27.80;11.00;;;;;;;9.63;89.38;99019.13;5015367;28;20240;-71
2021/03/23 08:47:48;;;;;;;30.20;10.80;;;;;;;9.54;93.52;99019.34;5017770;28;20235;-72
2021/03/23 08:50:21;;;;;;;20.30;10.53;;;;;;;9.94;89.58;99021.88;5012050;28;20858;-72
2021/03/23 08:52:50;;;;;;;21.20;10.17;;;;;;;9.91;89.77;99017.72;5009705;28;20203;-73
2021/03/23 08:55:45;;;;;;;24.43;10.87;;;;;;;9.92;86.71;99024.72;5012148;28;20204;-73
2021/03/23 08:58:15;;;;;;;20.37;10.23;;;;;;;10.32;84.41;99029.06;5003745;28;20232;-70
2021/03/23 09:00:57;;;;;;;23.30;10.23;;;;;;;10.05;85.73;99025.03;5013692;28;20235;-71
2021/03/23 09:03:44;;;;;;;21.27;9.83;;;;;;;10.55;81.68;99038.78;5012192;28;20204;-71
2021/03/23 09:06:13;;;;;;;23.37;10.13;;;;;;;10.66;82.20;99043.72;5018451;28;20239;-71
2021/03/23 09:09:15;;;;;;;18.97;8.70;;;;;;;11.82;66.92;99059.34;5013827;28;20600;-70
2021/03/23 09:12:01;;;;;;;18.97;8.27;;;;;;;11.59;69.83;99061.22;5013543;28;20203;-71
2021/03/23 09:14:31;;;;;;;16.67;8.03;;;;;;;12.06;66.89;99064.41;5010837;28;20214;-70
2021/03/23 09:17:21;;;;;;;20.63;9.20;;;;;;;12.72;62.13;99058.06;5010518;28;20220;-72
2021/03/23 09:19:54;;;;;;;19.33;9.07;;;;;;;11.92;67.11;99059.91;5007317;28;20283;-70
2021/03/23 09:22:35;;;;;;;17.97;9.20;;;;;;;13.02;60.52;99065.00;5006103;28;20206;-70
2021/03/23 09:25:48;;;;;;;17.87;8.07;;;;;;;11.95;62.04;99072.88;5014195;28;20203;-68
2021/03/23 09:28:44;;;;;;;12.07;6.23;;;;;;;11.35;63.06;99067.59;5002848;28;20226;-68
2021/03/23 09:31:17;;;;;;;10.47;4.80;;;;;;;11.24;60.75;99062.69;5013005;28;20202;-70
2021/03/23 09:33:49;;;;;;;11.80;5.80;;;;;;;11.10;59.87;99066.13;5006144;28;20889;-70
2021/03/23 09:36:47;;;;;;;11.97;5.57;;;;;;;10.85;63.63;99045.94;5015558;28;20221;-72
2021/03/23 09:39:47;;;;;;;13.33;5.70;;;;;;;11.18;63.79;99046.53;5013763;28;20232;-71
2021/03/23 09:42:40;;;;;;;13.67;6.13;;;;;;;10.93;63.72;99055.72;5012841;28;20206;-70
2021/03/23 09:45:33;;;;;;;10.27;5.53;;;;;;;12.79;52.00;99063.28;5010931;28;20675;-67
2021/03/23 09:48:04;;;;;;;11.53;5.20;;;;;;;11.26;56.39;99070.53;5014896;28;20247;-69
2021/03/23 09:50:40;;;;;;;12.40;5.17;;;;;;;12.56;52.28;99069.00;5014070;28;20344;-69
2021/03/23 09:53:14;;;;;;;12.63;5.70;;;;;;;12.06;56.87;99055.56;5012192;28;20208;-69
2021/03/23 09:55:41;;;;;;;18.23;6.10;;;;;;;12.76;53.78;99049.44;5006685;28;21059;-69
2021/03/23 09:58:15;;;;;;;13.30;6.20;;;;;;;11.94;56.22;99049.84;5014799;28;20289;-69
2021/03/23 10:00:42;;;;;;;11.60;6.00;;;;;;;10.91;60.00;99045.22;5011313;28;20286;-69
2021/03/23 10:03:34;;;;;;;12.97;5.50;;;;;;;11.05;57.58;99057.81;5008199;28;20205;-69
2021/03/23 10:06:03;;;;;;;9.83;5.27;;;;;;;10.81;57.26;99060.66;5010909;28;20215;-70
2021/03/23 10:08:34;;;;;;;9.23;4.90;;;;;;;10.64;58.41;99051.09;5012837;28;20236;-71
2021/03/23 10:11:13;;;;;;;5.00;2.90;;;;;;;10.86;51.90;99065.47;5010647;28;20202;-69
2021/03/23 10:13:46;;;;;;;7.10;3.80;;;;;;;11.64;49.37;99063.38;5012182;28;20296;-69
2021/03/23 10:16:23;;;;;;;9.33;4.50;;;;;;;11.05;53.71;99062.31;5010934;28;20209;-68
2021/03/23 10:18:50;;;;;;;8.80;4.37;;;;;;;11.62;51.32;99062.72;5011892;28;20230;-68
2021/03/23 10:21:17;;;;;;;8.13;4.37;;;;;;;11.33;52.07;99058.09;5012952;28;20213;-70
2021/03/23 10:23:46;;;;;;;8.53;4.20;;;;;;;11.31;52.91;99060.94;5012034;28;20208;-70
2021/03/23 10:26:13;;;;;;;11.10;4.53;;;;;;;11.07;53.23;99053.09;5013064;28;20344;-69
2021/03/23 10:28:48;;;;;;;8.47;4.50;;;;;;;11.07;53.11;99054.97;5013996;28;20747;-71
2021/03/23 10:31:33;;;;;;;10.83;3.23;;;;;;;11.00;51.58;99057.50;5014417;28;20213;-72
2021/03/23 10:34:05;;;;;;;7.33;3.33;;;;;;;10.77;51.72;99047.84;5010918;28;20575;-70
2021/03/23 10:36:45;;;;;;;6.67;3.33;;;;;;;12.03;48.63;99060.25;5011958;28;20202;-71
2021/03/23 10:39:49;;;;;;;7.13;3.30;;;;;;;12.42;46.52;99054.63;5010098;28;20717;-70
2021/03/23 10:42:22;;;;;;;12.47;4.37;;;;;;;10.53;53.45;99050.66;5012965;28;20210;-71
2021/03/23 10:44:50;;;;;;;8.27;4.70;;;;;;;10.36;57.32;99041.06;5015515;28;20246;-73
2021/03/23 10:47:34;;;;;;;10.17;4.40;;;;;;;11.72;54.41;99039.22;5011335;28;20214;-69
2021/03/23 10:50:16;;;;;;;9.13;4.83;;;;;;;11.53;53.12;99048.56;5007215;28;20229;-69
2021/03/23 10:52:44;;;;;;;8.00;4.60;;;;;;;12.59;49.25;99050.69;5013339;28;20234;-70
2021/03/23 10:55:27;;;;;;;8.50;4.30;;;;;;;11.73;51.64;99049.72;5006832;28;20214;-69
2021/03/23 10:58:20;;;;;;;11.03;4.53;;;;;;;12.26;48.84;99053.97;5009647;28;20241;-70
2021/03/23 11:00:48;;;;;;;8.93;3.63;;;;;;;11.78;49.94;99047.34;5009105;28;20233;-70
2021/03/23 11:03:29;;;;;;;8.37;3.73;;;;;;;11.37;49.17;99056.72;5011391;28;20207;-71
2021/03/23 11:05:56;;;;;;;8.97;3.40;;;;;;;11.41;49.21;99069.53;5012855;28;20216;-69
2021/03/23 11:08:23;;;;;;;9.03;5.03;;;;;;;11.48;51.98;99053.63;5013734;28;20229;-70
2021/03/23 11:10:51;;;;;;;9.23;4.90;;;;;;;10.97;54.90;99041.84;5014591;28;20290;-71
2021/03/23 11:13:18;;;;;;;9.30;5.00;;;;;;;10.22;57.82;99031.13;5008664;28;20261;-71
2021/03/23 11:15:47;;;;;;;8.57;4.07;;;;;;;10.40;56.23;99034.38;5016174;28;20795;-73
2021/03/23 11:18:19;;;;;;;7.33;3.63;;;;;;;10.95;53.02;99045.72;5013619;28;20235;-71
2021/03/23 11:20:47;;;;;;;7.13;3.73;;;;;;;11.16;52.90;99040.53;5015253;28;20216;-71
2021/03/23 11:23:34;;;;;;;8.57;4.40;;;;;;;11.47;51.98;99050.09;5013122;28;20721;-71
2021/03/23 11:26:02;;;;;;;9.77;4.17;;;;;;;12.46;48.62;99049.72;5015339;28;20207;-70
2021/03/23 11:28:30;;;;;;;8.47;4.60;;;;;;;11.56;51.77;99041.00;5012605;28;20642;-71
2021/03/23 11:30:58;;;;;;;6.60;3.97;;;;;;;10.95;53.55;99045.72;5011398;28;20290;-70
2021/03/23 11:33:25;;;;;;;8.27;4.47;;;;;;;11.13;52.51;99052.41;5006593;28;20204;-70
2021/03/23 11:35:52;;;;;;;7.87;3.87;;;;;;;11.71;49.18;99043.72;5008766;28;20234;-69
2021/03/23 11:38:20;;;;;;;9.27;3.93;;;;;;;11.76;48.65;99049.34;5006367;28;20325;-73
2021/03/23 11:40:49;;;;;;;7.60;3.97;;;;;;;12.16;46.80;99048.09;5007508;28;20213;-72
2021/03/23 11:43:23;;;;;;;7.17;4.03;;;;;;;12.68;46.02;99046.06;5008187;28;20209;-71
2021/03/23 11:45:52;;;;;;;8.23;5.07;;;;;;;12.08;48.25;99040.97;5007842;28;20211;-71